Time;durP1;ratioP1;P1;durP2;ratioP2;P2;SDS_P1;SDS_P2;PMS_P1;PMS_P2;Temp;Humidity;BMP_temperature;BMP_pressure;BME280_temperature;BME280_humidity;BME280_pressure;Samples;Min_cycle;Max_cycle;Signal;HPM_P1;HPM_P2
2022/02/21 00:00:25;;;;;;;;;;;22.50;33.00;;;;;;5093223;28;19927;-72
2022/02/21 00:02:53;;;;;;;;;;;22.50;33.00;;;;;;5090789;28;19965;-72
2022/02/21 00:05:20;;;;;;;;;;;22.50;33.20;;;;;;5092951;28;19946;-72
2022/02/21 00:07:48;;;;;;;;;;;22.50;33.00;;;;;;5072680;28;20389;-71
2022/02/21 00:10:20;;;;;;;;;;;22.50;33.00;;;;;;5093048;28;20391;-72
2022/02/21 00:12:47;;;;;;;;;;;22.50;33.00;;;;;;5090353;28;19924;-71
2022/02/21 00:15:17;;;;;;;;;;;22.50;33.00;;;;;;5092502;28;19974;-74
2022/02/21 00:17:46;;;;;;;;;;;22.50;33.10;;;;;;5089771;28;20201;-71
2022/02/21 00:20:13;;;;;;;;;;;22.50;33.10;;;;;;5092484;28;19924;-71
2022/02/21 00:22:40;;;;;;;;;;;22.50;33.10;;;;;;5090485;28;19970;-71
2022/02/21 00:28:02;;;;;;;;;;;22.50;33.10;;;;;;5089277;28;19924;-71
2022/02/21 00:30:29;;;;;;;;;;;22.50;33.10;;;;;;5092995;28;19925;-72
2022/02/21 00:32:56;;;;;;;;;;;22.50;33.10;;;;;;5072159;28;19925;-72
2022/02/21 00:35:24;;;;;;;;;;;22.50;33.10;;;;;;5092448;28;19932;-72
2022/02/21 00:37:51;;;;;;;;;;;22.50;33.10;;;;;;5089823;28;20430;-72
2022/02/21 00:40:18;;;;;;;;;;;22.50;33.10;;;;;;5092418;28;19924;-72
2022/02/21 00:42:45;;;;;;;;;;;22.50;33.10;;;;;;5090100;28;20555;-71
2022/02/21 00:45:12;;;;;;;;;;;22.50;33.10;;;;;;5091870;28;19943;-72
2022/02/21 00:47:39;;;;;;;;;;;22.50;33.10;;;;;;5090030;28;19932;-72
2022/02/21 00:50:39;;;;;;;;;;;22.50;33.10;;;;;;5091876;28;19969;-71
2022/02/21 00:53:06;;;;;;;;;;;22.50;33.10;;;;;;5089719;28;19955;-72
2022/02/21 00:55:36;;;;;;;;;;;22.50;33.10;;;;;;5092334;28;19963;-71
2022/02/21 00:58:03;;;;;;;;;;;22.50;33.10;;;;;;5089392;28;20334;-72
2022/02/21 01:00:31;;;;;;;;;;;22.50;33.10;;;;;;5092026;28;19977;-72
2022/02/21 01:02:58;;;;;;;;;;;22.50;33.10;;;;;;5089625;28;20015;-71
2022/02/21 01:05:25;;;;;;;;;;;22.50;33.10;;;;;;5092443;28;19924;-71
2022/02/21 01:07:52;;;;;;;;;;;22.50;33.10;;;;;;5089622;28;20028;-71
2022/02/21 01:10:19;;;;;;;;;;;22.50;33.10;;;;;;5091662;28;19928;-72
2022/02/21 01:12:46;;;;;;;;;;;22.50;33.10;;;;;;5089418;28;19924;-72
2022/02/21 01:15:35;;;;;;;;;;;22.50;33.10;;;;;;5074291;28;19932;-71
2022/02/21 01:18:02;;;;;;;;;;;22.50;33.10;;;;;;5088726;28;19924;-71
2022/02/21 01:20:29;;;;;;;;;;;22.50;33.10;;;;;;5090155;28;19924;-71
2022/02/21 01:22:56;;;;;;;;;;;22.50;33.10;;;;;;5088734;28;19985;-71
2022/02/21 01:25:23;;;;;;;;;;;22.50;33.10;;;;;;5091683;28;19924;-71
2022/02/21 01:27:50;;;;;;;;;;;22.50;33.10;;;;;;5089078;28;20156;-71
2022/02/21 01:30:17;;;;;;;;;;;22.50;33.20;;;;;;5091503;28;19924;-71
2022/02/21 01:32:44;;;;;;;;;;;22.50;33.20;;;;;;5089144;28;19963;-71
2022/02/21 01:35:11;;;;;;;;;;;22.50;33.20;;;;;;5091194;28;19977;-72
2022/02/21 01:37:38;;;;;;;;;;;22.40;33.20;;;;;;5089153;28;19932;-71
2022/02/21 01:43:09;;;;;;;;;;;22.40;33.20;;;;;;5088952;28;19942;-71
2022/02/21 01:45:36;;;;;;;;;;;22.40;33.20;;;;;;5091706;28;19928;-74
2022/02/21 01:48:03;;;;;;;;;;;22.40;33.20;;;;;;5088152;28;19927;-71
2022/02/21 01:50:30;;;;;;;;;;;22.40;33.20;;;;;;5073225;28;20373;-71
2022/02/21 01:52:58;;;;;;;;;;;22.40;33.20;;;;;;5088342;28;20397;-71
2022/02/21 01:55:26;;;;;;;;;;;22.40;33.20;;;;;;5091097;28;19924;-71
2022/02/21 01:57:52;;;;;;;;;;;22.40;33.20;;;;;;5088235;28;19924;-71
2022/02/21 02:00:20;;;;;;;;;;;22.40;33.20;;;;;;5090608;28;20231;-71
2022/02/21 02:02:47;;;;;;;;;;;22.40;33.20;;;;;;5088536;28;19967;-71
2022/02/21 02:05:46;;;;;;;;;;;22.40;33.20;;;;;;5090739;28;19924;-71
2022/02/21 02:08:13;;;;;;;;;;;22.40;33.20;;;;;;5088335;28;19958;-71
2022/02/21 02:10:40;;;;;;;;;;;22.40;33.30;;;;;;5090604;28;20348;-72
2022/02/21 02:13:07;;;;;;;;;;;22.40;33.20;;;;;;5069640;28;19924;-72
2022/02/21 02:15:34;;;;;;;;;;;22.40;33.30;;;;;;5091324;28;19928;-72
2022/02/21 02:18:02;;;;;;;;;;;22.40;33.30;;;;;;5088048;28;19924;-71
2022/02/21 02:20:29;;;;;;;;;;;22.40;33.20;;;;;;5091005;28;19982;-71
2022/02/21 02:22:56;;;;;;;;;;;22.40;33.20;;;;;;5087957;28;19924;-71
2022/02/21 02:25:23;;;;;;;;;;;22.40;33.20;;;;;;5090380;28;20393;-71
2022/02/21 02:27:50;;;;;;;;;;;22.40;33.20;;;;;;5088254;28;19928;-71
2022/02/21 02:30:36;;;;;;;;;;;22.40;33.20;;;;;;5072215;28;20063;-71
2022/02/21 02:33:03;;;;;;;;;;;22.40;33.20;;;;;;5088134;28;19973;-71
2022/02/21 02:35:32;;;;;;;;;;;22.40;33.20;;;;;;5090706;28;19924;-71
2022/02/21 02:38:01;;;;;;;;;;;22.40;33.20;;;;;;5087684;28;19928;-71
2022/02/21 02:40:28;;;;;;;;;;;22.40;33.20;;;;;;5090710;28;19963;-72
2022/02/21 02:42:55;;;;;;;;;;;22.40;33.20;;;;;;5087815;28;19997;-71
2022/02/21 02:45:22;;;;;;;;;;;22.40;33.20;;;;;;5090256;28;20369;-71
2022/02/21 02:47:49;;;;;;;;;;;22.40;33.30;;;;;;5087589;28;19924;-71
2022/02/21 02:50:16;;;;;;;;;;;22.40;33.30;;;;;;5090146;28;19924;-71
2022/02/21 02:52:43;;;;;;;;;;;22.40;33.30;;;;;;5087203;28;19928;-71
2022/02/21 02:58:02;;;;;;;;;;;22.40;33.30;;;;;;5086642;28;19970;-72
2022/02/21 03:00:29;;;;;;;;;;;22.40;33.30;;;;;;5090265;28;20364;-71
2022/02/21 03:02:56;;;;;;;;;;;22.40;33.30;;;;;;5087199;28;19959;-72
2022/02/21 03:05:23;;;;;;;;;;;22.40;33.30;;;;;;5090085;28;20041;-71
2022/02/21 03:07:50;;;;;;;;;;;22.40;33.40;;;;;;5087210;28;19924;-74
2022/02/21 03:10:17;;;;;;;;;;;22.30;33.30;;;;;;5090176;28;19969;-71
2022/02/21 03:12:45;;;;;;;;;;;22.30;33.30;;;;;;5087774;28;19967;-71
2022/02/21 03:15:11;;;;;;;;;;;22.40;33.40;;;;;;5089931;28;19924;-71
2022/02/21 03:17:38;;;;;;;;;;;22.30;33.30;;;;;;5087051;28;19935;-71
2022/02/21 03:20:06;;;;;;;;;;;22.30;33.30;;;;;;5089571;28;19936;-71
2022/02/21 03:22:33;;;;;;;;;;;22.30;33.30;;;;;;5090073;28;19928;-71
2022/02/21 03:25:00;;;;;;;;;;;22.30;33.30;;;;;;5093085;28;20377;-72
2022/02/21 03:27:27;;;;;;;;;;;22.30;33.30;;;;;;5091917;28;19928;-71
2022/02/21 03:33:02;;;;;;;;;;;22.30;33.30;;;;;;5091245;28;19924;-72
2022/02/21 03:35:29;;;;;;;;;;;22.30;33.30;;;;;;5094281;28;19951;-71
2022/02/21 03:37:56;;;;;;;;;;;22.30;33.30;;;;;;5091358;28;19955;-72
2022/02/21 03:40:23;;;;;;;;;;;22.30;33.30;;;;;;5093632;28;20020;-72
2022/02/21 03:42:51;;;;;;;;;;;22.30;33.30;;;;;;5091063;28;19974;-71
2022/02/21 03:45:19;;;;;;;;;;;22.40;33.40;;;;;;5093620;28;19924;-72
2022/02/21 03:47:46;;;;;;;;;;;22.30;33.30;;;;;;5091053;28;19967;-72
2022/02/21 03:50:13;;;;;;;;;;;22.30;33.30;;;;;;5093244;28;19977;-72
2022/02/21 03:52:40;;;;;;;;;;;22.30;33.30;;;;;;5090944;28;19979;-71
2022/02/21 03:58:02;;;;;;;;;;;22.40;33.40;;;;;;5090875;28;20236;-72
2022/02/21 04:00:29;;;;;;;;;;;22.40;33.30;;;;;;5093316;28;19928;-72
2022/02/21 04:02:57;;;;;;;;;;;22.30;33.30;;;;;;5090591;28;20172;-72
2022/02/21 04:05:23;;;;;;;;;;;22.30;33.30;;;;;;5093517;28;19924;-72
2022/02/21 04:07:51;;;;;;;;;;;22.40;33.40;;;;;;5090513;28;19936;-71
2022/02/21 04:10:18;;;;;;;;;;;22.30;33.30;;;;;;5093234;28;19970;-71
2022/02/21 04:12:46;;;;;;;;;;;22.30;33.40;;;;;;5090370;28;20346;-71
2022/02/21 04:15:13;;;;;;;;;;;22.30;33.30;;;;;;5092633;28;19966;-71
2022/02/21 04:17:47;;;;;;;;;;;22.30;33.40;;;;;;5090030;28;19928;-71
2022/02/21 04:20:15;;;;;;;;;;;22.30;33.40;;;;;;5092754;28;20303;-71
2022/02/21 04:22:43;;;;;;;;;;;22.30;33.40;;;;;;5090865;28;19924;-71
2022/02/21 04:25:11;;;;;;;;;;;22.30;33.40;;;;;;5074742;28;19953;-72
2022/02/21 04:27:42;;;;;;;;;;;22.30;33.40;;;;;;5090500;28;19924;-71
2022/02/21 04:30:09;;;;;;;;;;;22.30;33.40;;;;;;5092098;28;20022;-71
2022/02/21 04:32:38;;;;;;;;;;;22.30;33.40;;;;;;5090846;28;19970;-71
2022/02/21 04:35:06;;;;;;;;;;;22.30;33.40;;;;;;5090531;28;19964;-72
2022/02/21 04:37:33;;;;;;;;;;;22.30;33.40;;;;;;5089058;28;20277;-71
2022/02/21 04:43:05;;;;;;;;;;;22.30;33.40;;;;;;5089689;28;19924;-73
2022/02/21 04:45:32;;;;;;;;;;;22.30;33.40;;;;;;5091062;28;19971;-71
2022/02/21 04:47:59;;;;;;;;;;;22.30;33.40;;;;;;5071543;28;19968;-71
2022/02/21 04:50:26;;;;;;;;;;;22.30;33.40;;;;;;5092734;28;20379;-71
2022/02/21 04:52:53;;;;;;;;;;;22.30;33.40;;;;;;5085351;28;19928;-71
2022/02/21 04:55:20;;;;;;;;;;;22.30;33.40;;;;;;5091954;28;20041;-71
2022/02/21 04:57:47;;;;;;;;;;;22.30;33.40;;;;;;5090008;28;20362;-71
2022/02/21 05:00:14;;;;;;;;;;;22.30;33.40;;;;;;5092027;28;20012;-71
2022/02/21 05:02:41;;;;;;;;;;;22.30;33.40;;;;;;5089770;28;20399;-72
2022/02/21 05:08:03;;;;;;;;;;;22.30;33.40;;;;;;5089229;28;20458;-71
2022/02/21 05:10:30;;;;;;;;;;;22.30;33.40;;;;;;5092435;28;19927;-71
2022/02/21 05:12:57;;;;;;;;;;;22.30;33.40;;;;;;5071249;28;20330;-71
2022/02/21 05:15:24;;;;;;;;;;;22.30;33.90;;;;;;5091960;28;20104;-71
2022/02/21 05:17:51;;;;;;;;;;;22.30;33.40;;;;;;5089260;28;19974;-71
2022/02/21 05:20:18;;;;;;;;;;;22.40;33.40;;;;;;5091542;28;19924;-72
2022/02/21 05:22:45;;;;;;;;;;;22.30;33.30;;;;;;5089268;28;19924;-71
2022/02/21 05:25:12;;;;;;;;;;;22.30;33.40;;;;;;5072815;28;19931;-72
2022/02/21 05:27:40;;;;;;;;;;;22.30;33.40;;;;;;5087431;28;19931;-71
2022/02/21 05:33:02;;;;;;;;;;;22.30;33.40;;;;;;5086609;28;19936;-72
2022/02/21 05:35:29;;;;;;;;;;;22.30;33.40;;;;;;5072660;28;19959;-71
2022/02/21 05:37:56;;;;;;;;;;;22.30;33.40;;;;;;5085340;28;19969;-71
2022/02/21 05:40:23;;;;;;;;;;;22.30;33.40;;;;;;5091503;28;19964;-71
2022/02/21 05:42:50;;;;;;;;;;;22.30;33.40;;;;;;5088564;28;19977;-71
2022/02/21 05:45:17;;;;;;;;;;;22.30;33.40;;;;;;5090066;28;20001;-71
2022/02/21 05:47:44;;;;;;;;;;;22.30;33.50;;;;;;5089067;28;19970;-71
2022/02/21 05:50:11;;;;;;;;;;;22.30;33.40;;;;;;5091074;28;19924;-71
2022/02/21 05:52:38;;;;;;;;;;;22.30;33.40;;;;;;5087955;28;19967;-71
2022/02/21 05:55:36;;;;;;;;;;;22.30;33.50;;;;;;5090511;28;20324;-71
2022/02/21 05:58:03;;;;;;;;;;;22.20;33.40;;;;;;5088358;28;20015;-71
2022/02/21 06:00:30;;;;;;;;;;;22.30;33.50;;;;;;5091125;28;19986;-71
2022/02/21 06:02:57;;;;;;;;;;;22.30;33.50;;;;;;5087537;28;19924;-72
2022/02/21 06:05:24;;;;;;;;;;;22.30;33.50;;;;;;5090673;28;19924;-72
2022/02/21 06:07:51;;;;;;;;;;;22.30;33.50;;;;;;5086712;28;19981;-71
2022/02/21 06:10:21;;;;;;;;;;;22.30;33.40;;;;;;5071871;28;19967;-72
2022/02/21 06:12:49;;;;;;;;;;;22.30;33.30;;;;;;5076480;28;20737;-71
2022/02/21 06:15:16;;;;;;;;;;;22.30;33.30;;;;;;5086092;28;19932;-72
2022/02/21 06:17:52;;;;;;;;;;;22.30;33.50;;;;;;5089190;28;19924;-79
2022/02/21 06:20:19;;;;;;;;;;;22.30;33.60;;;;;;5090547;28;19986;-69
2022/02/21 06:22:46;;;;;;;;;;;22.30;33.50;;;;;;5106245;28;19925;-73
2022/02/21 06:25:13;;;;;;;;;;;22.40;33.50;;;;;;5084191;28;20042;-66
2022/02/21 06:27:41;;;;;;;;;;;22.40;33.60;;;;;;5081257;28;20300;-67
2022/02/21 06:30:08;;;;;;;;;;;22.50;33.50;;;;;;5084420;28;20369;-67
2022/02/21 06:32:35;;;;;;;;;;;22.50;33.40;;;;;;5079780;28;19939;-70
2022/02/21 06:38:36;;;;;;;;;;;22.70;33.40;;;;;;5088551;28;20015;-76
2022/02/21 06:41:03;;;;;;;;;;;22.80;33.20;;;;;;5078291;28;19932;-77
2022/02/21 06:43:30;;;;;;;;;;;22.90;33.80;;;;;;5076248;28;19932;-65
2022/02/21 06:45:57;;;;;;;;;;;23.00;34.00;;;;;;5077273;28;19932;-65
2022/02/21 06:48:24;;;;;;;;;;;23.00;34.20;;;;;;5074217;28;19932;-66
2022/02/21 06:50:51;;;;;;;;;;;23.10;34.20;;;;;;5062670;28;19984;-67
2022/02/21 06:53:20;;;;;;;;;;;23.20;34.10;;;;;;5079224;28;19932;-69
2022/02/21 06:55:47;;;;;;;;;;;23.30;33.90;;;;;;5074183;28;19976;-66
2022/02/21 06:58:14;;;;;;;;;;;23.40;33.90;;;;;;5076844;28;20017;-68
2022/02/21 07:00:42;;;;;;;;;;;23.50;33.80;;;;;;5075782;28;19932;-68
2022/02/21 07:03:10;;;;;;;;;;;23.50;33.60;;;;;;5079497;28;21482;-65
2022/02/21 07:05:37;;;;;;;;;;;23.60;33.40;;;;;;5067710;28;19928;-64
2022/02/21 07:08:04;;;;;;;;;;;23.60;33.30;;;;;;5073220;28;19932;-64
2022/02/21 07:10:31;;;;;;;;;;;23.70;33.50;;;;;;5082125;28;19932;-66
2022/02/21 07:12:58;;;;;;;;;;;23.80;33.60;;;;;;5078278;28;19924;-65
2022/02/21 07:18:22;;;;;;;;;;;23.80;33.40;;;;;;5078199;28;19930;-70
2022/02/21 07:20:54;;;;;;;;;;;23.80;33.50;;;;;;5089645;28;20335;-72
2022/02/21 07:23:22;;;;;;;;;;;23.80;33.50;;;;;;5077903;28;19928;-69
2022/02/21 07:25:49;;;;;;;;;;;23.90;33.70;;;;;;5089033;28;19969;-71
2022/02/21 07:28:16;;;;;;;;;;;23.90;33.70;;;;;;5089304;28;20331;-67
2022/02/21 07:30:44;;;;;;;;;;;23.90;33.70;;;;;;5089986;28;20331;-78
2022/02/21 07:33:11;;;;;;;;;;;23.90;33.60;;;;;;5080379;28;19932;-68
2022/02/21 07:35:38;;;;;;;;;;;23.90;33.50;;;;;;5087571;28;19924;-74
2022/02/21 07:38:05;;;;;;;;;;;24.00;33.60;;;;;;5087131;28;19928;-77
2022/02/21 07:40:32;;;;;;;;;;;24.00;33.70;;;;;;5087843;28;20069;-72
2022/02/21 07:43:00;;;;;;;;;;;24.00;33.60;;;;;;5070359;28;20430;-74
2022/02/21 07:45:27;;;;;;;;;;;24.00;33.50;;;;;;5091507;28;19981;-70
2022/02/21 07:48:00;;;;;;;;;;;24.00;33.40;;;;;;5093287;28;19982;-72
2022/02/21 07:50:30;;;;;;;;;;;24.10;33.40;;;;;;5093370;28;19931;-66
2022/02/21 07:52:57;;;;;;;;;;;24.10;33.50;;;;;;5093300;28;19924;-71
2022/02/21 07:55:26;;;;;;;;;;;24.10;33.50;;;;;;5093241;28;20387;-68
2022/02/21 07:57:53;;;;;;;;;;;24.20;33.50;;;;;;5068624;28;20350;-68
2022/02/21 08:00:20;;;;;;;;;;;24.20;33.40;;;;;;5087600;28;19977;-70
2022/02/21 08:02:49;;;;;;;;;;;24.30;33.60;;;;;;5084123;28;19989;-66
2022/02/21 08:05:16;;;;;;;;;;;24.30;33.50;;;;;;5086474;28;19924;-69
2022/02/21 08:07:44;;;;;;;;;;;24.30;33.40;;;;;;5088524;28;20323;-67
2022/02/21 08:10:12;;;;;;;;;;;24.40;33.50;;;;;;5072536;28;19993;-64
2022/02/21 08:12:39;;;;;;;;;;;24.40;33.50;;;;;;5090344;28;19924;-68
2022/02/21 08:15:06;;;;;;;;;;;24.50;33.50;;;;;;5102973;28;19932;-71
2022/02/21 08:17:38;;;;;;;;;;;24.50;33.60;;;;;;5108787;28;20123;-70
2022/02/21 08:20:10;;;;;;;;;;;24.50;33.50;;;;;;5108980;28;19923;-66
2022/02/21 08:22:38;;;;;;;;;;;24.50;33.50;;;;;;5111450;28;19924;-66
2022/02/21 08:25:05;;;;;;;;;;;24.60;33.60;;;;;;5093790;28;20333;-66
2022/02/21 08:27:34;;;;;;;;;;;24.60;33.50;;;;;;5091771;28;19924;-69
2022/02/21 08:30:02;;;;;;;;;;;24.60;33.50;;;;;;5072160;28;20019;-71
2022/02/21 08:32:29;;;;;;;;;;;24.70;33.50;;;;;;5085037;28;19932;-70
2022/02/21 08:34:56;;;;;;;;;;;24.70;33.50;;;;;;5069813;28;20351;-65
2022/02/21 08:37:24;;;;;;;;;;;24.70;33.60;;;;;;5063055;28;20005;-68
2022/02/21 08:39:51;;;;;;;;;;;24.80;33.70;;;;;;5083273;28;19967;-64
2022/02/21 08:42:18;;;;;;;;;;;24.80;33.60;;;;;;5071680;28;20411;-66
2022/02/21 08:44:45;;;;;;;;;;;24.80;33.60;;;;;;5090659;28;19932;-68
2022/02/21 08:47:15;;;;;;;;;;;24.90;33.60;;;;;;5073255;28;19936;-69
2022/02/21 08:49:42;;;;;;;;;;;24.90;33.70;;;;;;5080222;28;19931;-71
2022/02/21 08:52:09;;;;;;;;;;;24.90;33.80;;;;;;5077319;28;19932;-69
2022/02/21 08:54:37;;;;;;;;;;;24.90;33.80;;;;;;5084628;28;19928;-71
2022/02/21 08:57:04;;;;;;;;;;;25.00;33.80;;;;;;5081779;28;19932;-72
2022/02/21 08:59:32;;;;;;;;;;;25.00;33.70;;;;;;5072557;28;20011;-69
2022/02/21 09:01:58;;;;;;;;;;;25.00;33.50;;;;;;5077170;28;19977;-71
2022/02/21 09:04:46;;;;;;;;;;;25.00;33.40;;;;;;5082789;28;20001;-73
2022/02/21 09:07:16;;;;;;;;;;;25.10;33.20;;;;;;5082831;28;19928;-64
2022/02/21 09:09:43;;;;;;;;;;;25.10;33.20;;;;;;5057089;28;19924;-71
2022/02/21 09:12:10;;;;;;;;;;;25.20;33.30;;;;;;5079022;28;19929;-71
2022/02/21 09:14:38;;;;;;;;;;;25.20;33.10;;;;;;5076706;28;20385;-74
2022/02/21 09:17:05;;;;;;;;;;;25.20;33.00;;;;;;5081308;28;19932;-67
2022/02/21 09:19:32;;;;;;;;;;;25.20;32.80;;;;;;5083419;28;20026;-70
2022/02/21 09:21:59;;;;;;;;;;;25.30;32.90;;;;;;5083636;28;20023;-67
2022/02/21 09:24:26;;;;;;;;;;;25.30;32.80;;;;;;5085625;28;20389;-62
2022/02/21 09:26:53;;;;;;;;;;;25.30;32.80;;;;;;5082360;28;20386;-66
2022/02/21 09:32:43;;;;;;;;;;;25.30;32.70;;;;;;5082129;28;19927;-67
2022/02/21 09:35:17;;;;;;;;;;;25.30;32.60;;;;;;5083376;28;20278;-69
2022/02/21 09:37:44;;;;;;;;;;;25.30;32.60;;;;;;5083044;28;19924;-68
2022/02/21 09:40:13;;;;;;;;;;;25.30;32.60;;;;;;5088443;28;20263;-71
2022/02/21 09:42:41;;;;;;;;;;;25.30;32.60;;;;;;5062599;28;19932;-67
2022/02/21 09:45:13;;;;;;;;;;;25.30;32.60;;;;;;5086088;28;19924;-70
2022/02/21 09:47:40;;;;;;;;;;;25.30;32.50;;;;;;5083649;28;20398;-72
2022/02/21 09:50:28;;;;;;;;;;;25.30;32.40;;;;;;5087995;28;19998;-72
2022/02/21 09:53:00;;;;;;;;;;;25.30;32.30;;;;;;5077745;28;19981;-71
2022/02/21 09:55:28;;;;;;;;;;;25.30;32.30;;;;;;5089255;28;20024;-69
2022/02/21 09:57:55;;;;;;;;;;;25.30;32.30;;;;;;5074473;28;20929;-70
2022/02/21 10:00:23;;;;;;;;;;;25.30;32.30;;;;;;5087192;28;19967;-70
2022/02/21 10:02:51;;;;;;;;;;;25.30;32.30;;;;;;5088632;28;19924;-69
2022/02/21 10:05:22;;;;;;;;;;;25.30;32.30;;;;;;5087061;28;19974;-74
2022/02/21 10:07:49;;;;;;;;;;;25.30;32.40;;;;;;5083142;28;20001;-71
2022/02/21 10:10:18;;;;;;;;;;;25.30;32.50;;;;;;5087982;28;19950;-70
2022/02/21 10:12:46;;;;;;;;;;;25.30;32.30;;;;;;5104468;28;19978;-70
2022/02/21 10:15:19;;;;;;;;;;;25.30;32.30;;;;;;5088718;28;19924;-73
2022/02/21 10:17:46;;;;;;;;;;;25.30;32.30;;;;;;5085769;28;19958;-69
2022/02/21 10:20:14;;;;;;;;;;;25.30;32.30;;;;;;5069535;28;20523;-72
2022/02/21 10:23:01;;;;;;;;;;;25.30;32.30;;;;;;5070955;28;19973;-67
2022/02/21 10:25:28;;;;;;;;;;;25.30;32.30;;;;;;5086948;28;19981;-67
2022/02/21 10:27:59;;;;;;;;;;;25.40;32.40;;;;;;5080452;28;19971;-67
2022/02/21 10:30:27;;;;;;;;;;;25.30;32.40;;;;;;5087441;28;19959;-68
2022/02/21 10:33:12;;;;;;;;;;;25.40;32.40;;;;;;5100209;28;19925;-68
2022/02/21 10:35:39;;;;;;;;;;;25.40;32.30;;;;;;5085745;28;19925;-65
2022/02/21 10:38:06;;;;;;;;;;;25.40;32.20;;;;;;5080205;28;19973;-67
2022/02/21 10:40:36;;;;;;;;;;;25.40;32.20;;;;;;5088411;28;19931;-67
2022/02/21 10:43:09;;;;;;;;;;;25.40;32.10;;;;;;5072348;28;19931;-69
2022/02/21 10:45:37;;;;;;;;;;;25.40;32.10;;;;;;5088776;28;19924;-65
2022/02/21 10:48:06;;;;;;;;;;;25.50;32.20;;;;;;5081773;28;19928;-68
2022/02/21 10:50:34;;;;;;;;;;;25.40;32.10;;;;;;5069297;28;19928;-65
2022/02/21 10:53:12;;;;;;;;;;;25.40;32.10;;;;;;5069213;28;19981;-66
2022/02/21 10:55:40;;;;;;;;;;;25.50;32.30;;;;;;5070123;28;19943;-66
2022/02/21 10:58:18;;;;;;;;;;;25.50;32.30;;;;;;5073805;28;19932;-65
2022/02/21 11:00:49;;;;;;;;;;;25.50;32.20;;;;;;5090309;28;19924;-65
2022/02/21 11:03:17;;;;;;;;;;;25.50;32.10;;;;;;5089138;28;20377;-62
2022/02/21 11:05:45;;;;;;;;;;;25.50;32.10;;;;;;5088217;28;19928;-65
2022/02/21 11:08:14;;;;;;;;;;;25.50;32.20;;;;;;5083995;28;19967;-63
2022/02/21 11:10:42;;;;;;;;;;;25.50;32.40;;;;;;5108878;28;19976;-63
2022/02/21 11:13:12;;;;;;;;;;;25.40;32.30;;;;;;5109942;28;19971;-63
2022/02/21 11:15:39;;;;;;;;;;;25.40;32.50;;;;;;5110551;28;20292;-65
2022/02/21 11:18:09;;;;;;;;;;;25.40;32.40;;;;;;5095660;28;19928;-66
2022/02/21 11:20:37;;;;;;;;;;;25.40;32.70;;;;;;5089276;28;20015;-64
2022/02/21 11:23:06;;;;;;;;;;;25.40;32.90;;;;;;5089949;28;20404;-64
2022/02/21 11:25:40;;;;;;;;;;;25.40;32.80;;;;;;5090234;28;19931;-64
2022/02/21 11:28:21;;;;;;;;;;;25.30;32.80;;;;;;5088485;28;19934;-64
2022/02/21 11:30:50;;;;;;;;;;;25.30;32.80;;;;;;5089604;28;19978;-64
2022/02/21 11:33:20;;;;;;;;;;;25.30;32.90;;;;;;5089847;28;19967;-64
2022/02/21 11:36:07;;;;;;;;;;;25.30;32.90;;;;;;5089983;28;20329;-64
2022/02/21 11:38:35;;;;;;;;;;;25.20;32.70;;;;;;5086449;28;20002;-64
2022/02/21 11:41:07;;;;;;;;;;;25.20;32.90;;;;;;5089488;28;19955;-65
2022/02/21 11:43:38;;;;;;;;;;;25.10;33.10;;;;;;5089122;28;20266;-64
2022/02/21 11:46:07;;;;;;;;;;;25.10;33.10;;;;;;5093538;28;20130;-63
2022/02/21 11:48:57;;;;;;;;;;;25.10;33.10;;;;;;5087043;28;20360;-67
2022/02/21 11:51:29;;;;;;;;;;;25.10;33.30;;;;;;5088853;28;20348;-65
2022/02/21 11:54:16;;;;;;;;;;;25.00;33.60;;;;;;5091390;28;19928;-68
2022/02/21 11:56:59;;;;;;;;;;;25.00;33.70;;;;;;5077065;28;19924;-64
2022/02/21 11:59:26;;;;;;;;;;;25.00;33.70;;;;;;5079708;28;20213;-64
2022/02/21 12:02:01;;;;;;;;;;;25.00;33.60;;;;;;5091246;28;19924;-64
2022/02/21 12:04:28;;;;;;;;;;;25.00;33.60;;;;;;5090532;28;19928;-64
2022/02/21 12:06:57;;;;;;;;;;;25.00;33.60;;;;;;5092632;28;19932;-64
2022/02/21 12:09:24;;;;;;;;;;;25.00;33.50;;;;;;5091427;28;19964;-65
2022/02/21 12:11:52;;;;;;;;;;;25.00;33.50;;;;;;5092980;28;19987;-64
2022/02/21 12:14:20;;;;;;;;;;;25.00;33.50;;;;;;5092871;28;19928;-64
2022/02/21 12:16:59;;;;;;;;;;;25.00;33.40;;;;;;5093074;28;19959;-66
2022/02/21 12:19:27;;;;;;;;;;;25.00;33.50;;;;;;5106297;28;20335;-63
2022/02/21 12:22:11;;;;;;;;;;;25.00;33.50;;;;;;5093075;28;20400;-64
2022/02/21 12:24:58;;;;;;;;;;;24.90;33.60;;;;;;5093229;28;20421;-63
2022/02/21 12:27:25;;;;;;;;;;;24.90;33.60;;;;;;5092469;28;19930;-64
2022/02/21 12:29:52;;;;;;;;;;;24.90;33.60;;;;;;5104214;28;20352;-65
2022/02/21 12:32:24;;;;;;;;;;;24.90;33.60;;;;;;5111938;28;19931;-64
2022/02/21 12:34:51;;;;;;;;;;;24.90;33.60;;;;;;5113025;28;19924;-66
2022/02/21 12:37:18;;;;;;;;;;;24.90;33.70;;;;;;5111976;28;20023;-67
2022/02/21 12:39:48;;;;;;;;;;;24.90;33.80;;;;;;5097851;28;19924;-63
2022/02/21 12:42:24;;;;;;;;;;;24.90;33.80;;;;;;5092293;28;20019;-63
2022/02/21 12:44:53;;;;;;;;;;;24.90;34.00;;;;;;5091462;28;20377;-62
2022/02/21 12:47:20;;;;;;;;;;;24.90;33.90;;;;;;5086890;28;19971;-66
2022/02/21 12:49:55;;;;;;;;;;;24.90;33.90;;;;;;5087158;28;19942;-68
2022/02/21 12:52:21;;;;;;;;;;;24.90;33.90;;;;;;5080525;28;20181;-68
2022/02/21 12:54:53;;;;;;;;;;;24.90;33.90;;;;;;5086070;28;19928;-64
2022/02/21 12:57:41;;;;;;;;;;;24.90;33.90;;;;;;5062015;28;19924;-64
2022/02/21 13:00:08;;;;;;;;;;;24.90;34.00;;;;;;5086522;28;19971;-65
2022/02/21 13:02:35;;;;;;;;;;;24.90;34.00;;;;;;5064242;28;20381;-62
2022/02/21 13:05:03;;;;;;;;;;;24.90;34.20;;;;;;5088603;28;19924;-63
2022/02/21 13:07:30;;;;;;;;;;;24.80;34.30;;;;;;5088782;28;20014;-65
2022/02/21 13:10:05;;;;;;;;;;;24.80;34.50;;;;;;5088130;28;20358;-64
2022/02/21 13:12:32;;;;;;;;;;;24.80;34.80;;;;;;5083859;28;20641;-64
2022/02/21 13:14:59;;;;;;;;;;;24.80;34.90;;;;;;5089634;28;19928;-62
2022/02/21 13:17:26;;;;;;;;;;;24.80;35.10;;;;;;5089526;28;19932;-64
2022/02/21 13:19:56;;;;;;;;;;;24.80;35.30;;;;;;5088915;28;20011;-62
2022/02/21 13:22:27;;;;;;;;;;;24.80;35.20;;;;;;5066073;28;19966;-64
2022/02/21 13:24:58;;;;;;;;;;;24.80;35.20;;;;;;5088450;28;19974;-67
2022/02/21 13:27:27;;;;;;;;;;;24.80;35.20;;;;;;5089696;28;19979;-67
2022/02/21 13:33:12;;;;;;;;;;;24.80;35.30;;;;;;5081036;28;20008;-66
2022/02/21 13:35:41;;;;;;;;;;;24.70;35.10;;;;;;5090190;28;19928;-64
2022/02/21 13:38:08;;;;;;;;;;;24.70;35.00;;;;;;5089137;28;20308;-71
2022/02/21 13:40:35;;;;;;;;;;;24.70;35.10;;;;;;5087806;28;19946;-63
2022/02/21 13:43:05;;;;;;;;;;;24.70;35.10;;;;;;5079948;28;20027;-64
2022/02/21 13:45:33;;;;;;;;;;;24.70;34.90;;;;;;5071279;28;20349;-67
2022/02/21 13:48:06;;;;;;;;;;;24.70;34.90;;;;;;5067800;28;20438;-67
2022/02/21 13:50:35;;;;;;;;;;;24.70;34.90;;;;;;5063392;28;20042;-64
2022/02/21 13:53:02;;;;;;;;;;;24.70;35.00;;;;;;5068239;28;19924;-62
2022/02/21 13:55:30;;;;;;;;;;;24.60;35.00;;;;;;5088988;28;19928;-64
2022/02/21 13:58:03;;;;;;;;;;;24.70;35.20;;;;;;5091411;28;20257;-64
2022/02/21 14:00:47;;;;;;;;;;;24.60;35.10;;;;;;5090690;28;20018;-66
2022/02/21 14:03:16;;;;;;;;;;;24.60;35.10;;;;;;5089449;28;19924;-66
2022/02/21 14:06:03;;;;;;;;;;;24.60;35.10;;;;;;5089399;28;20369;-67
2022/02/21 14:08:41;;;;;;;;;;;24.60;35.00;;;;;;5090449;28;19928;-65
2022/02/21 14:11:16;;;;;;;;;;;24.70;35.10;;;;;;5090490;28;19924;-64
2022/02/21 14:13:43;;;;;;;;;;;24.70;35.00;;;;;;5084407;28;20381;-67
2022/02/21 14:16:11;;;;;;;;;;;24.60;34.90;;;;;;5105549;28;19943;-72
2022/02/21 14:18:38;;;;;;;;;;;24.60;34.90;;;;;;5089373;28;19924;-70
2022/02/21 14:21:07;;;;;;;;;;;24.60;35.00;;;;;;5090154;28;20030;-69
2022/02/21 14:23:34;;;;;;;;;;;24.60;35.00;;;;;;5085850;28;19963;-70
2022/02/21 14:26:01;;;;;;;;;;;24.60;35.00;;;;;;5090273;28;19977;-69
2022/02/21 14:28:28;;;;;;;;;;;24.60;34.90;;;;;;5090010;28;19947;-68
2022/02/21 14:30:55;;;;;;;;;;;24.50;34.90;;;;;;5090698;28;19928;-67
2022/02/21 14:33:22;;;;;;;;;;;24.50;34.80;;;;;;5085712;28;20380;-65
2022/02/21 14:35:50;;;;;;;;;;;24.50;34.90;;;;;;5068956;28;19986;-68
2022/02/21 14:38:18;;;;;;;;;;;24.50;34.90;;;;;;5068215;28;19925;-67
2022/02/21 14:40:45;;;;;;;;;;;24.40;34.80;;;;;;5069739;28;20427;-66
2022/02/21 14:43:12;;;;;;;;;;;24.40;34.80;;;;;;5069983;28;20019;-68
2022/02/21 14:45:40;;;;;;;;;;;24.40;34.80;;;;;;5078627;28;19944;-69
2022/02/21 14:48:07;;;;;;;;;;;24.40;34.80;;;;;;5082432;28;19977;-70
2022/02/21 14:50:35;;;;;;;;;;;24.40;34.80;;;;;;5081464;28;19928;-69
2022/02/21 14:53:07;;;;;;;;;;;24.40;34.50;;;;;;5081385;28;19931;-72
2022/02/21 14:55:34;;;;;;;;;;;24.40;35.00;;;;;;5085866;28;20006;-73
2022/02/21 14:58:01;;;;;;;;;;;24.30;35.00;;;;;;5080275;28;20389;-72
2022/02/21 15:00:29;;;;;;;;;;;24.30;35.20;;;;;;5106062;28;19992;-62
2022/02/21 15:02:58;;;;;;;;;;;24.30;35.20;;;;;;5075736;28;19925;-69